Time;durP1;ratioP1;P1;durP2;ratioP2;P2;SDS_P1;SDS_P2;PMS_P1;PMS_P2;Temp;Humidity;BMP_temperature;BMP_pressure;BME280_temperature;BME280_humidity;BME280_pressure;Samples;Min_cycle;Max_cycle;Signal;HPM_P1;HPM_P2
2022/04/17 00:01:42;;;;;;;38.78;19.80;;;;;;;2.84;74.70;100186.83;4329055;80;21062;-86
2022/04/17 00:07:47;;;;;;;43.30;22.13;;;;;;;2.75;74.83;100181.31;4334048;80;21466;-86
2022/04/17 00:13:54;;;;;;;36.58;17.85;;;;;;;2.60;75.11;100176.13;4208968;82;21054;-86
2022/04/17 00:19:55;;;;;;;39.03;18.30;;;;;;;2.45;75.02;100180.42;4181839;83;21081;-86
2022/04/17 00:25:57;;;;;;;41.08;19.02;;;;;;;2.32;75.78;100183.84;4282990;80;20990;-85
2022/04/17 00:32:02;;;;;;;37.13;17.77;;;;;;;2.25;75.56;100185.31;4210214;82;21578;-86
2022/04/17 00:38:13;;;;;;;55.63;26.60;;;;;;;2.14;75.81;100173.03;4197240;83;21474;-86
2022/04/17 00:44:15;;;;;;;46.33;25.62;;;;;;;2.11;76.42;100174.97;4276613;82;21113;-86
2022/04/17 00:50:21;;;;;;;38.45;18.75;;;;;;;2.01;76.23;100170.50;4277875;80;21075;-86
2022/04/17 00:56:24;;;;;;;30.17;14.70;;;;;;;1.92;76.74;100171.44;4270439;82;21523;-86
2022/04/17 01:02:28;;;;;;;35.92;15.60;;;;;;;1.79;76.58;100176.19;4264053;80;21093;-86
2022/04/17 01:08:43;;;;;;;28.90;14.90;;;;;;;1.75;77.58;100169.77;4270262;82;21014;-87
2022/04/17 01:14:51;;;;;;;31.33;15.80;;;;;;;1.75;77.88;100161.13;4282908;80;21090;-85
2022/04/17 01:20:53;;;;;;;29.47;16.37;;;;;;;1.78;78.00;100161.91;4289264;81;22291;-85
2022/04/17 01:26:57;;;;;;;29.98;14.60;;;;;;;1.68;77.70;100163.36;4287730;81;20965;-85
2022/04/17 01:32:58;;;;;;;36.00;16.48;;;;;;;1.65;78.72;100159.89;4288090;80;21693;-86
2022/04/17 01:39:00;;;;;;;34.73;17.32;;;;;;;1.55;78.31;100153.28;4291260;81;21040;-86
2022/04/17 01:45:01;;;;;;;32.75;16.70;;;;;;;1.47;78.21;100154.70;4295630;81;21593;-85
2022/04/17 01:51:03;;;;;;;37.30;16.82;;;;;;;1.36;78.78;100157.81;4283129;81;21018;-85
2022/04/17 01:57:04;;;;;;;34.53;16.52;;;;;;;1.31;79.02;100151.12;4288691;80;21044;-87
2022/04/17 02:03:06;;;;;;;31.50;14.53;;;;;;;1.33;79.11;100152.99;4287653;81;21007;-86
2022/04/17 02:09:15;;;;;;;35.95;18.25;;;;;;;1.29;79.88;100147.89;4293073;81;20989;-86
2022/04/17 02:15:15;;;;;;;;;;;;;;;1.24;79.29;100147.41;4310944;81;21034;-86
2022/04/17 02:21:17;;;;;;;37.25;19.67;;;;;;;1.23;80.65;100147.16;4260281;81;20119;-86
2022/04/17 02:27:19;;;;;;;34.00;16.55;;;;;;;1.12;79.39;100148.34;4228042;82;21069;-86
2022/04/17 02:33:21;;;;;;;30.15;15.80;;;;;;;0.98;79.33;100143.36;4224051;82;21039;-85
2022/04/17 02:39:23;;;;;;;31.77;15.80;;;;;;;0.61;80.10;100128.31;4293023;81;20967;-86
2022/04/17 02:45:27;;;;;;;25.90;14.35;;;;;;;0.61;80.10;100128.31;4299380;81;21011;-85
2022/04/17 02:51:28;;;;;;;34.30;17.32;;;;;;;0.74;81.08;100131.72;4293742;80;21085;-85
2022/04/17 02:57:43;;;;;;;31.02;15.80;;;;;;;0.66;79.49;100132.89;4197499;83;21003;-84
2022/04/17 03:09:53;;;;;;;35.43;17.27;;;;;;;0.68;80.77;100135.55;4295943;81;21356;-85
2022/04/17 03:15:54;;;;;;;34.35;17.07;;;;;;;0.56;80.96;100145.90;4290138;81;21967;-85
2022/04/17 03:21:56;;;;;;;36.53;17.17;;;;;;;0.45;81.09;100129.55;4294050;80;21023;-85
2022/04/17 03:27:58;;;;;;;35.70;18.35;;;;;;;0.53;81.13;100146.99;4212569;83;21013;-84
2022/04/17 03:33:59;;;;;;;41.45;19.67;;;;;;;0.51;81.39;100145.93;4300803;81;21020;-84
2022/04/17 03:40:01;;;;;;;43.87;22.05;;;;;;;0.55;81.66;100147.53;4315839;81;20947;-85
2022/04/17 03:46:02;;;;;;;46.30;22.65;;;;;;;0.49;81.75;100147.28;4222411;83;21029;-84
2022/04/17 03:52:04;;;;;;;45.98;20.88;;;;;;;0.40;81.74;100149.78;4306864;81;21006;-84
2022/04/17 03:58:05;;;;;;;38.85;20.23;;;;;;;0.32;82.08;100141.48;4372688;80;20998;-85
2022/04/17 04:04:07;;;;;;;45.52;21.17;;;;;;;0.16;81.58;100154.80;4255388;80;74759;-85
2022/04/17 04:10:09;;;;;;;40.00;21.00;;;;;;;0.05;81.92;100155.95;4218606;83;21958;-85
2022/04/17 04:16:11;;;;;;;42.30;22.40;;;;;;;0.05;81.87;100151.34;4198716;82;21037;-85
2022/04/17 04:22:13;;;;;;;35.65;19.55;;;;;;;0.00;82.41;100156.22;4197008;83;21002;-85
2022/04/17 04:28:33;;;;;;;38.35;21.68;;;;;;;0.00;82.70;100150.84;4145138;84;21995;-85
2022/04/17 04:34:34;;;;;;;41.68;21.95;;;;;;;0.07;82.84;100155.92;4171003;83;21081;-85
2022/04/17 04:40:35;;;;;;;39.00;22.90;;;;;;;0.14;83.50;100153.73;4138676;83;21004;-85
2022/04/17 04:46:38;;;;;;;33.02;18.92;;;;;;;0.26;84.07;100153.38;4156959;84;21044;-85
2022/04/17 04:52:39;;;;;;;40.05;20.88;;;;;;;0.61;84.68;100157.17;4141234;85;21047;-85
2022/04/17 04:58:41;;;;;;;42.93;21.73;;;;;;;0.79;84.69;100141.11;4192535;83;21011;-85
2022/04/17 05:04:42;;;;;;;38.23;19.20;;;;;;;1.15;84.70;100153.70;4142760;83;21106;-85
2022/04/17 05:10:54;;;;;;;37.53;18.07;;;;;;;1.39;84.83;100155.33;4164766;83;21486;-86
2022/04/17 05:16:56;;;;;;;37.50;19.70;;;;;;;1.76;85.29;100149.77;4170401;84;21101;-86
2022/04/17 05:23:03;;;;;;;40.45;20.55;;;;;;;2.19;85.34;100149.47;4171049;84;22292;-85
2022/04/17 05:29:02;;;;;;;38.15;20.43;;;;;;;2.44;84.58;100157.20;4128973;85;21074;-85
2022/04/17 05:35:05;;;;;;;39.67;21.07;;;;;;;2.63;84.02;100156.61;4144820;85;21053;-85
2022/04/17 05:41:09;;;;;;;37.08;19.65;;;;;;;2.78;83.60;100159.09;4135804;83;20984;-85
2022/04/17 05:47:15;;;;;;;39.67;19.60;;;;;;;2.96;83.07;100158.23;4141179;83;21626;-85
2022/04/17 05:53:18;;;;;;;29.72;16.10;;;;;;;3.25;82.99;100155.28;4148779;83;20991;-86
2022/04/17 05:59:20;;;;;;;32.23;17.65;;;;;;;3.69;82.86;100151.99;4146938;85;21041;-86
2022/04/17 06:05:21;;;;;;;27.93;14.53;;;;;;;4.25;82.32;100157.28;4136061;85;21498;-86
2022/04/17 06:11:23;;;;;;;25.20;13.80;;;;;;;4.82;81.23;100152.37;4133689;83;21051;-86
2022/04/17 06:17:24;;;;;;;24.10;14.70;;;;;;;5.33;80.34;100155.15;4135502;83;21007;-85
2022/04/17 06:23:25;;;;;;;19.67;12.07;;;;;;;5.78;79.46;100152.56;4142722;83;21576;-86
2022/04/17 06:29:27;;;;;;;17.02;9.75;;;;;;;6.32;78.70;100159.65;4181386;84;21026;-85
2022/04/17 06:35:29;;;;;;;13.68;8.08;;;;;;;6.74;77.53;100151.78;4171852;84;21492;-86
2022/04/17 06:41:30;;;;;;;19.25;10.40;;;;;;;7.13;77.29;100146.92;4150054;84;21968;-86
2022/04/17 06:47:32;;;;;;;16.55;8.18;;;;;;;7.52;76.49;100142.55;4203562;84;20978;-87
2022/04/17 06:53:34;;;;;;;9.55;4.15;;;;;;;7.72;76.64;100149.98;4165289;83;20973;-87
2022/04/17 06:59:35;;;;;;;8.78;4.33;;;;;;;7.75;75.98;100143.09;4145308;84;21044;-86
2022/04/17 07:05:41;;;;;;;5.53;2.85;;;;;;;7.81;74.51;100141.78;4167524;82;21030;-87
2022/04/17 07:11:42;;;;;;;3.45;1.77;;;;;;;7.79;69.71;100142.66;4179887;84;21014;-88
2022/04/17 07:17:44;;;;;;;5.80;2.60;;;;;;;7.54;69.29;100142.22;4179010;83;21519;-88
2022/04/17 07:23:48;;;;;;;2.30;1.50;;;;;;;7.38;67.49;100145.23;4159720;83;21075;-87
2022/04/17 07:29:52;;;;;;;2.75;1.72;;;;;;;7.63;64.43;100146.51;4173244;84;21408;-87
2022/04/17 07:35:54;;;;;;;2.17;1.45;;;;;;;7.86;63.51;100147.83;4172427;83;21145;-87
2022/04/17 07:41:55;;;;;;;4.20;1.90;;;;;;;8.30;60.06;100149.19;4177615;83;21061;-85
2022/04/17 07:47:58;;;;;;;2.37;1.35;;;;;;;8.22;59.83;100140.50;4168656;84;21405;-87
2022/04/17 07:54:00;;;;;;;1.65;1.10;;;;;;;8.03;58.90;100145.59;4163489;84;21054;-87
2022/04/17 08:00:04;;;;;;;3.40;1.67;;;;;;;7.91;53.81;100140.83;4156116;83;21085;-86
2022/04/17 08:06:07;;;;;;;2.47;1.47;;;;;;;7.71;54.46;100142.95;4152746;83;21050;-86
2022/04/17 08:12:08;;;;;;;3.70;1.70;;;;;;;7.64;49.69;100141.87;4167326;84;21044;-86
2022/04/17 08:18:10;;;;;;;15.65;4.40;;;;;;;7.49;50.79;100138.31;4161806;84;21048;-87
2022/04/17 08:24:11;;;;;;;2.33;1.45;;;;;;;7.69;52.19;100132.13;4203096;84;22096;-88
2022/04/17 08:30:16;;;;;;;3.60;1.90;;;;;;;8.08;52.55;100130.38;4191208;83;21075;-87
2022/04/17 08:36:17;;;;;;;5.85;2.52;;;;;;;8.40;52.91;100122.88;4154241;84;21453;-87
2022/04/17 08:42:20;;;;;;;29.57;6.75;;;;;;;8.84;51.89;100115.91;4226859;83;21013;-87
2022/04/17 08:48:22;;;;;;;5.92;1.98;;;;;;;9.88;51.49;100123.33;4185066;84;22003;-84
2022/04/17 08:54:26;;;;;;;3.22;1.60;;;;;;;9.66;45.03;100128.48;4186178;84;21754;-87
2022/04/17 09:00:28;;;;;;;5.70;3.10;;;;;;;8.97;48.99;100121.06;4171618;84;21017;-87
2022/04/17 09:06:29;;;;;;;4.47;2.00;;;;;;;8.63;47.79;100113.20;4200911;83;20998;-88
2022/04/17 09:12:31;;;;;;;5.42;1.70;;;;;;;8.61;45.78;100108.67;4171658;84;21035;-87
2022/04/17 09:18:33;;;;;;;4.85;2.25;;;;;;;8.40;47.33;100101.05;4165768;83;21059;-87
2022/04/17 09:24:39;;;;;;;10.90;4.90;;;;;;;8.54;48.24;100098.84;4182867;83;22380;-87
2022/04/17 09:30:49;;;;;;;2.62;1.35;;;;;;;10.29;47.44;100073.05;4185166;83;21056;-87
2022/04/17 09:37:00;;;;;;;3.15;1.92;;;;;;;11.74;44.07;100066.12;4188060;84;21423;-88
2022/04/17 09:43:44;;;;;;;4.85;2.33;;;;;;;11.40;45.29;100069.59;4192241;83;21030;-88
2022/04/17 09:50:18;;;;;;;2.50;1.77;;;;;;;11.83;46.44;100055.19;4152087;83;21069;-87
2022/04/17 09:56:43;;;;;;;6.33;2.60;;;;;;;11.50;43.82;100061.61;4178777;84;21073;-88
2022/04/17 10:02:47;;;;;;;3.08;1.82;;;;;;;12.29;44.15;100045.98;4164462;84;21085;-87
2022/04/17 10:08:51;;;;;;;3.42;1.85;;;;;;;12.03;45.28;100036.23;4170396;84;21028;-88
2022/04/17 10:14:55;;;;;;;4.25;2.27;;;;;;;11.56;42.02;100036.87;4159195;84;22028;-88
2022/04/17 10:21:02;;;;;;;3.92;2.40;;;;;;;10.71;40.34;100040.02;4146240;81;21056;-87
2022/04/17 10:27:07;;;;;;;9.58;3.90;;;;;;;10.49;43.74;100029.03;4178387;84;21007;-87
2022/04/17 10:33:54;;;;;;;3.15;2.33;;;;;;;11.43;43.60;100018.16;4153412;84;21016;-88
2022/04/17 10:39:57;;;;;;;3.60;1.98;;;;;;;11.13;40.19;100018.60;4142374;84;21023;-87
2022/04/17 10:46:17;;;;;;;4.20;2.50;;;;;;;10.27;42.80;100013.75;4142094;84;21062;-88
2022/04/17 10:52:31;;;;;;;3.33;1.87;;;;;;;10.20;43.12;99997.11;4154260;84;21061;-85
2022/04/17 10:58:54;;;;;;;3.90;2.00;;;;;;;11.33;41.74;99985.80;4140940;84;21575;-85
2022/04/17 11:04:56;;;;;;;2.58;2.10;;;;;;;12.40;40.41;99989.94;4151387;84;21061;-86
2022/04/17 11:11:09;;;;;;;3.87;2.27;;;;;;;11.49;39.51;99990.69;4156962;84;21427;-87
2022/04/17 11:17:19;;;;;;;3.92;2.10;;;;;;;10.50;40.90;99982.73;4146675;83;21103;-86
2022/04/17 11:23:59;;;;;;;7.37;3.87;;;;;;;10.25;41.49;99975.78;4139643;84;21847;-85
2022/04/17 11:30:02;;;;;;;3.72;1.70;;;;;;;10.28;41.38;99962.77;4178242;83;21065;-86
2022/04/17 11:36:09;;;;;;;5.40;2.87;;;;;;;10.41;41.15;99948.45;4182071;83;21029;-85
2022/04/17 11:42:10;;;;;;;3.35;1.65;;;;;;;10.69;40.54;99942.34;4159239;84;21038;-86
2022/04/17 11:48:18;;;;;;;3.08;1.70;;;;;;;10.83;41.36;99938.03;4173078;84;21086;-87
2022/04/17 11:54:34;;;;;;;3.12;1.75;;;;;;;10.97;40.19;99931.52;4184316;83;21041;-86
2022/04/17 12:00:36;;;;;;;2.63;1.30;;;;;;;11.21;40.88;99922.30;4164466;83;21022;-88
2022/04/17 12:06:37;;;;;;;3.10;1.60;;;;;;;11.37;40.01;99916.78;4179249;84;21051;-88
2022/04/17 12:12:45;;;;;;;2.30;1.30;;;;;;;11.21;39.71;99916.82;4170786;84;21517;-87
2022/04/17 12:18:55;;;;;;;2.35;1.22;;;;;;;11.13;39.41;99904.10;4169168;82;21144;-88
2022/04/17 12:24:58;;;;;;;1.67;1.20;;;;;;;11.00;38.88;99911.63;4162256;84;21065;-87
2022/04/17 12:30:59;;;;;;;5.80;2.12;;;;;;;11.38;38.99;99897.80;4160169;84;21028;-87
2022/04/17 12:37:18;;;;;;;3.02;1.67;;;;;;;11.32;38.87;99888.27;4167560;84;21025;-87
2022/04/17 12:43:21;;;;;;;13.20;4.60;;;;;;;10.89;38.51;99879.64;4171243;84;21014;-87
2022/04/17 12:49:27;;;;;;;2.92;1.75;;;;;;;10.52;39.43;99875.61;4161700;84;21005;-87
2022/04/17 12:55:37;;;;;;;3.67;1.47;;;;;;;10.33;38.82;99871.41;4151262;83;21409;-87
2022/04/17 13:01:44;;;;;;;21.02;5.00;;;;;;;10.03;38.93;99870.17;4168918;84;21020;-87
2022/04/17 13:07:45;;;;;;;4.97;2.17;;;;;;;10.14;39.26;99854.31;4165224;84;21083;-87
2022/04/17 13:13:51;;;;;;;2.92;1.50;;;;;;;10.47;40.02;99847.94;4157576;84;21036;-87
2022/04/17 13:19:53;;;;;;;1.57;1.10;;;;;;;10.70;39.16;99835.75;4169838;83;21050;-86
2022/04/17 13:25:55;;;;;;;9.05;3.55;;;;;;;10.78;39.70;99826.56;4169984;84;22124;-86
2022/04/17 13:31:56;;;;;;;11.18;3.92;;;;;;;10.82;39.56;99832.34;4177189;83;21644;-87
2022/04/17 13:38:13;;;;;;;3.70;1.90;;;;;;;10.55;39.57;99825.63;4190033;84;21896;-87
2022/04/17 13:44:14;;;;;;;3.72;2.33;;;;;;;10.33;39.63;99823.51;4192176;84;20967;-88
2022/04/17 13:50:15;;;;;;;7.33;2.90;;;;;;;10.27;39.39;99827.09;4135692;83;20976;-87
2022/04/17 13:56:17;;;;;;;2.72;1.42;;;;;;;10.17;39.31;99815.30;4186294;84;20992;-87
2022/04/17 14:02:20;;;;;;;3.50;1.80;;;;;;;10.18;38.34;99811.41;4170460;84;22010;-87
2022/04/17 14:08:21;;;;;;;8.73;2.62;;;;;;;10.10;38.84;99798.69;4206696;84;21045;-86
2022/04/17 14:14:22;;;;;;;3.17;1.70;;;;;;;10.02;38.98;99809.22;4173229;84;21616;-87
2022/04/17 14:20:24;;;;;;;3.52;1.75;;;;;;;10.03;39.35;99798.48;4203204;83;21954;-87
2022/04/17 14:26:25;;;;;;;6.42;2.35;;;;;;;10.12;39.04;99786.83;4231271;83;21438;-87
2022/04/17 14:32:26;;;;;;;5.87;2.00;;;;;;;10.14;39.56;99779.63;4232131;83;21021;-87
2022/04/17 14:38:27;;;;;;;3.58;1.40;;;;;;;10.52;39.43;99774.32;4231974;82;21713;-86
2022/04/17 14:44:28;;;;;;;4.25;1.37;;;;;;;11.09;39.95;99774.42;4221111;83;21031;-87
2022/04/17 14:50:31;;;;;;;3.12;1.45;;;;;;;10.71;39.65;99768.31;4248837;83;20981;-87
2022/04/17 14:56:32;;;;;;;2.85;1.55;;;;;;;10.22;39.64;99760.31;4230669;82;21070;-88
2022/04/17 15:02:36;;;;;;;2.50;1.55;;;;;;;9.78;39.88;99764.23;4228659;83;21059;-87
2022/04/17 15:08:37;;;;;;;3.15;1.90;;;;;;;9.53;40.00;99760.04;4231366;82;21027;-87
2022/04/17 15:14:39;;;;;;;2.52;1.67;;;;;;;9.42;40.12;99753.48;4234039;82;21015;-87
2022/04/17 15:20:41;;;;;;;2.80;1.72;;;;;;;9.46;40.33;99749.70;4232204;83;21022;-87
2022/04/17 15:26:43;;;;;;;3.42;1.77;;;;;;;9.39;40.40;99743.25;4238054;82;21028;-87
2022/04/17 15:32:45;;;;;;;2.65;1.67;;;;;;;9.21;40.45;99745.48;4218309;83;21003;-87
2022/04/17 15:38:46;;;;;;;2.85;1.67;;;;;;;9.05;40.66;99736.44;4227467;83;21041;-88
2022/04/17 15:51:07;;;;;;;2.52;1.60;;;;;;;8.98;40.91;99728.61;4231733;82;21014;-87
2022/04/17 15:57:09;;;;;;;7.40;3.10;;;;;;;9.08;41.13;99717.22;4218108;83;21526;-87
2022/04/17 16:03:10;;;;;;;6.15;1.95;;;;;;;9.07;41.03;99712.88;4226424;82;21123;-87
2022/04/17 16:09:20;;;;;;;4.28;1.72;;;;;;;9.04;41.03;99714.94;4210436;82;21070;-88
2022/04/17 16:15:21;;;;;;;2.12;1.30;;;;;;;8.89;41.06;99708.86;4216652;83;21029;-88
2022/04/17 16:21:23;;;;;;;3.05;1.60;;;;;;;8.68;41.22;99706.30;4189507;83;21102;-88
2022/04/17 16:27:33;;;;;;;4.70;2.08;;;;;;;8.50;41.60;99702.81;4148100;84;21122;-88
2022/04/17 16:33:39;;;;;;;4.20;1.67;;;;;;;8.31;41.70;99696.59;4185399;84;21058;-88
2022/04/17 16:39:41;;;;;;;3.40;1.70;;;;;;;8.19;41.86;99694.41;4079547;83;9999813;-87
2022/04/17 16:45:43;;;;;;;16.02;6.05;;;;;;;8.12;41.96;99698.27;4244176;84;20955;-87
2022/04/17 16:51:44;;;;;;;12.00;4.65;;;;;;;8.09;42.10;99697.59;4229631;83;21395;-88
2022/04/17 17:04:06;;;;;;;3.12;1.55;;;;;;;7.92;42.32;99689.85;4172232;84;21002;-88
2022/04/17 17:10:08;;;;;;;3.75;1.85;;;;;;;7.86;42.43;99684.99;4164564;84;21046;-88
2022/04/17 17:16:10;;;;;;;3.62;2.20;;;;;;;7.79;42.70;99693.73;4144215;83;21074;-88
2022/04/17 17:22:11;;;;;;;3.98;1.92;;;;;;;7.72;42.86;99698.16;4163641;83;21013;-87
2022/04/17 17:28:15;;;;;;;3.87;1.87;;;;;;;7.61;43.21;99703.22;4154576;84;21628;-87
2022/04/17 17:34:18;;;;;;;3.12;2.30;;;;;;;7.52;43.46;99701.17;4159093;84;21000;-87
2022/04/17 17:40:19;;;;;;;3.45;1.98;;;;;;;7.50;44.28;99697.20;4095246;84;9999710;-87
2022/04/17 17:46:20;;;;;;;2.65;1.72;;;;;;;7.44;44.62;99702.61;4148340;84;20968;-85
2022/04/17 17:52:29;;;;;;;4.30;2.00;;;;;;;7.34;44.96;99699.78;4143550;84;21358;-85
2022/04/17 17:58:29;;;;;;;4.03;1.90;;;;;;;7.20;44.72;99693.84;4183514;84;21073;-84
2022/04/17 18:04:30;;;;;;;3.87;1.70;;;;;;;7.15;46.23;99701.41;4138723;84;21178;-85
2022/04/17 18:16:54;;;;;;;5.80;2.90;;;;;;;6.91;46.56;99691.77;4138229;84;20927;-85
2022/04/17 18:22:57;;;;;;;8.53;3.50;;;;;;;6.82;47.04;99690.50;4155465;83;21087;-85
2022/04/17 18:28:58;;;;;;;13.83;6.65;;;;;;;6.71;47.35;99692.03;4166769;83;21107;-85
2022/04/17 18:34:59;;;;;;;12.10;5.75;;;;;;;6.54;47.87;99693.52;4077352;83;9999748;-84
2022/04/17 18:41:01;;;;;;;16.20;7.28;;;;;;;6.44;48.83;99691.77;4185659;83;21065;-84
2022/04/17 18:47:03;;;;;;;9.70;4.47;;;;;;;6.35;48.89;99690.45;4215710;83;20983;-85
2022/04/17 18:53:10;;;;;;;9.20;4.15;;;;;;;6.23;49.36;99683.59;4189271;83;21027;-84
2022/04/17 18:59:10;;;;;;;19.25;8.23;;;;;;;6.10;50.63;99677.27;4145903;84;21005;-84
2022/04/17 19:05:11;;;;;;;20.72;9.60;;;;;;;6.02;51.05;99678.66;4166398;84;21061;-85
2022/04/17 19:17:42;;;;;;;143.30;59.00;;;;;;;5.85;52.74;99676.03;4171602;84;21076;-84
2022/04/17 19:23:44;;;;;;;61.88;28.17;;;;;;;5.75;52.62;99665.48;4205892;82;21985;-85
2022/04/17 19:29:46;;;;;;;43.30;19.80;;;;;;;5.65;53.17;99662.61;4159367;83;21631;-85
2022/04/17 19:35:48;;;;;;;39.50;16.93;;;;;;;5.54;53.54;99657.30;4062839;83;9999818;-84
2022/04/17 19:41:49;;;;;;;63.63;25.50;;;;;;;5.43;54.21;99647.11;4174114;84;21624;-84
2022/04/17 19:47:51;;;;;;;113.22;39.35;;;;;;;5.34;54.63;99648.48;4155781;84;21184;-84
2022/04/17 19:53:52;;;;;;;109.78;34.83;;;;;;;5.22;54.88;99636.16;4184090;83;21298;-84
2022/04/17 19:59:55;;;;;;;89.77;31.97;;;;;;;5.14;55.35;99627.47;4174441;84;21030;-84
2022/04/17 20:05:56;;;;;;;76.85;26.10;;;;;;;5.07;55.67;99624.47;4246013;83;21010;-85
2022/04/17 20:11:57;;;;;;;60.88;22.73;;;;;;;5.00;56.25;99620.64;4171159;83;21020;-85
2022/04/17 20:17:58;;;;;;;61.70;22.95;;;;;;;4.93;56.43;99613.56;4183788;83;21018;-84
2022/04/17 20:24:00;;;;;;;65.62;24.05;;;;;;;4.86;57.33;99605.91;4185615;83;20998;-84
2022/04/17 20:30:01;;;;;;;57.55;20.15;;;;;;;4.83;57.78;99603.30;4168018;83;20996;-85
2022/04/17 20:36:05;;;;;;;59.13;22.40;;;;;;;4.85;58.95;99598.33;4167847;84;21837;-84
2022/04/17 20:42:06;;;;;;;53.70;20.77;;;;;;;4.84;59.10;99594.58;4207438;83;21002;-84
2022/04/17 20:54:28;;;;;;;62.20;24.50;;;;;;;4.62;58.92;99576.60;4171350;84;21097;-84
2022/04/17 21:00:30;;;;;;;65.87;24.15;;;;;;;4.54;60.98;99574.70;4170859;83;21623;-87
2022/04/17 21:06:32;;;;;;;55.38;22.05;;;;;;;4.45;60.68;99570.39;4178324;83;21046;-87
2022/04/17 21:12:34;;;;;;;56.02;21.37;;;;;;;4.24;60.64;99563.50;4164199;83;21534;-86
2022/04/17 21:18:36;;;;;;;52.70;21.33;;;;;;;4.12;61.46;99555.19;4174965;84;21076;-87
2022/04/17 21:24:38;;;;;;;56.13;24.70;;;;;;;3.97;61.81;99557.58;4207611;83;21157;-86
2022/04/17 21:30:39;;;;;;;42.75;20.10;;;;;;;3.74;61.12;99562.35;4251457;82;22240;-86
2022/04/17 21:36:41;;;;;;;65.12;29.63;;;;;;;3.54;61.45;99556.16;4242642;83;21937;-86
2022/04/17 21:42:42;;;;;;;47.75;22.22;;;;;;;3.33;61.61;99550.29;4241496;83;20998;-86
2022/04/17 21:48:43;;;;;;;48.58;19.87;;;;;;;3.14;61.81;99546.49;4241244;83;21117;-87
2022/04/17 21:54:45;;;;;;;38.13;17.35;;;;;;;2.96;62.78;99547.55;4242274;83;21014;-87
2022/04/17 22:07:10;;;;;;;36.65;16.17;;;;;;;2.48;62.79;99552.02;4210615;83;20995;-87
2022/04/17 22:13:12;;;;;;;29.10;14.00;;;;;;;2.29;63.49;99544.66;4257094;81;21062;-86
2022/04/17 22:19:14;;;;;;;37.60;17.05;;;;;;;2.09;64.43;99544.61;4247138;83;20990;-87
2022/04/17 22:25:15;;;;;;;37.40;17.15;;;;;;;2.06;64.42;99547.92;4241697;83;21031;-87
2022/04/17 22:31:17;;;;;;;36.48;15.60;;;;;;;1.83;64.65;99534.16;4230740;83;21596;-87
2022/04/17 22:37:18;;;;;;;32.25;14.87;;;;;;;1.73;65.89;99528.16;4227667;82;21038;-87
2022/04/17 22:43:19;;;;;;;34.70;15.78;;;;;;;1.83;66.53;99523.36;4231336;83;21578;-87
2022/04/17 22:49:21;;;;;;;47.00;21.77;;;;;;;1.92;66.52;99514.77;4232022;83;22053;-86
2022/04/17 22:55:22;;;;;;;52.35;23.05;;;;;;;1.66;66.07;99513.73;4222606;83;21019;-87
2022/04/17 23:01:30;;;;;;;53.10;24.52;;;;;;;1.37;65.96;99501.16;4194589;83;21063;-86
2022/04/17 23:07:38;;;;;;;52.60;22.10;;;;;;;1.11;66.24;99498.76;4203460;82;21133;-86
2022/04/17 23:13:44;;;;;;;44.03;20.48;;;;;;;0.85;66.44;99490.37;4233832;83;21013;-86
2022/04/17 23:19:46;;;;;;;46.42;21.00;;;;;;;0.71;67.37;99477.44;4234371;82;21571;-86
2022/04/17 23:25:50;;;;;;;42.37;19.83;;;;;;;0.60;67.44;99480.07;4174634;83;21587;-86
2022/04/17 23:31:52;;;;;;;45.43;20.88;;;;;;;0.41;67.77;99465.09;4176841;83;21458;-86
2022/04/17 23:37:54;;;;;;;48.02;20.40;;;;;;;0.41;67.77;99465.09;4133685;83;21095;-86
2022/04/17 23:43:55;;;;;;;48.40;20.32;;;;;;;0.23;68.21;99455.98;4129843;85;21063;-86
2022/04/17 23:49:56;;;;;;;51.02;21.75;;;;;;;0.16;68.93;99454.20;4143101;83;21053;-86
2022/04/17 23:55:58;;;;;;;45.40;18.43;;;;;;;0.09;68.70;99446.27;4142895;83;21056;-86
